Time;durP1;ratioP1;P1;durP2;ratioP2;P2;SDS_P1;SDS_P2;PMS_P1;PMS_P2;Temp;Humidity;BMP_temperature;BMP_pressure;BME280_temperature;BME280_humidity;BME280_pressure;Samples;Min_cycle;Max_cycle;Signal;HPM_P1;HPM_P2
2022/07/10 00:01:50;;;;;;;1.50;1.00;;;;;;;;;;5030231;28;20488;-36
2022/07/10 00:04:15;;;;;;;2.75;0.98;;;;;;;;;;5031402;28;20075;-37
2022/07/10 00:06:42;;;;;;;3.05;1.27;;;;;;;;;;5030097;28;20021;-37
2022/07/10 00:09:08;;;;;;;4.53;1.30;;;;;;;;;;5030745;28;20041;-36
2022/07/10 00:11:33;;;;;;;2.47;1.00;;;;;;;;;;5031175;28;20029;-37
2022/07/10 00:13:59;;;;;;;0.82;0.82;;;;;;;;;;5030047;28;20385;-36
2022/07/10 00:16:24;;;;;;;6.97;1.30;;;;;;;;;;5030115;28;20023;-36
2022/07/10 00:18:50;;;;;;;1.27;1.00;;;;;;;;;;5030525;28;20025;-36
2022/07/10 00:21:16;;;;;;;2.55;0.95;;;;;;;;;;5029892;28;20508;-37
2022/07/10 00:23:41;;;;;;;6.60;1.10;;;;;;;;;;5030249;28;20435;-37
2022/07/10 00:26:07;;;;;;;1.63;1.10;;;;;;;;;;5030026;28;20026;-36
2022/07/10 00:28:32;;;;;;;1.00;0.70;;;;;;;;;;5031613;28;20052;-36
2022/07/10 00:30:57;;;;;;;6.18;1.38;;;;;;;;;;5031523;28;20241;-37
2022/07/10 00:33:23;;;;;;;1.90;1.00;;;;;;;;;;5031429;28;20022;-37
2022/07/10 00:35:48;;;;;;;5.10;1.20;;;;;;;;;;5031139;28;20037;-37
2022/07/10 00:38:14;;;;;;;1.05;0.98;;;;;;;;;;5031599;28;20040;-37
2022/07/10 00:40:39;;;;;;;3.08;1.00;;;;;;;;;;5031576;28;20115;-37
2022/07/10 00:43:07;;;;;;;6.45;1.33;;;;;;;;;;5030882;28;20030;-37
2022/07/10 00:45:33;;;;;;;3.78;1.02;;;;;;;;;;5029944;28;20118;-36
2022/07/10 00:47:58;;;;;;;4.85;1.00;;;;;;;;;;5031367;28;20021;-36
2022/07/10 00:50:23;;;;;;;2.88;1.20;;;;;;;;;;5029679;28;20112;-37
2022/07/10 00:52:49;;;;;;;2.45;1.33;;;;;;;;;;5029770;28;20028;-37
2022/07/10 00:55:14;;;;;;;1.98;1.00;;;;;;;;;;5029889;28;20022;-37
2022/07/10 00:57:40;;;;;;;5.68;1.20;;;;;;;;;;5031284;28;20499;-36
2022/07/10 01:00:06;;;;;;;2.85;1.00;;;;;;;;;;5031225;28;20021;-37
2022/07/10 01:02:31;;;;;;;4.95;1.25;;;;;;;;;;5029252;28;20132;-37
2022/07/10 01:04:57;;;;;;;1.13;1.00;;;;;;;;;;5029593;28;20056;-37
2022/07/10 01:07:22;;;;;;;1.00;0.80;;;;;;;;;;5030911;28;20026;-37
2022/07/10 01:09:49;;;;;;;1.20;0.90;;;;;;;;;;5030389;28;20033;-37
2022/07/10 01:12:15;;;;;;;5.53;1.10;;;;;;;;;;5029588;28;20438;-37
2022/07/10 01:14:40;;;;;;;2.45;1.92;;;;;;;;;;5029532;28;20018;-36
2022/07/10 01:17:07;;;;;;;1.63;1.00;;;;;;;;;;5031579;28;20021;-37
2022/07/10 01:19:32;;;;;;;2.47;1.17;;;;;;;;;;5034970;28;20037;-37
2022/07/10 01:21:58;;;;;;;4.40;1.00;;;;;;;;;;5034842;28;20069;-37
2022/07/10 01:24:24;;;;;;;1.00;0.73;;;;;;;;;;5034562;28;20021;-37
2022/07/10 01:26:49;;;;;;;3.30;1.00;;;;;;;;;;5033303;28;20120;-37
2022/07/10 01:29:14;;;;;;;2.15;1.13;;;;;;;;;;5034385;28;20032;-37
2022/07/10 01:31:40;;;;;;;2.10;1.00;;;;;;;;;;5034825;28;20013;-36
2022/07/10 01:34:07;;;;;;;2.63;0.75;;;;;;;;;;5033451;28;20017;-38
2022/07/10 01:36:33;;;;;;;3.35;1.10;;;;;;;;;;5032628;28;20071;-40
2022/07/10 01:38:58;;;;;;;3.92;0.90;;;;;;;;;;5034686;28;20355;-36
2022/07/10 01:41:24;;;;;;;4.35;1.75;;;;;;;;;;5034481;28;20026;-36
2022/07/10 01:43:50;;;;;;;4.70;1.00;;;;;;;;;;5034361;28;20014;-39
2022/07/10 01:46:16;;;;;;;1.15;0.98;;;;;;;;;;5034228;28;20087;-37
2022/07/10 01:48:41;;;;;;;2.17;1.73;;;;;;;;;;5032914;28;20017;-41
2022/07/10 01:51:07;;;;;;;1.02;0.85;;;;;;;;;;5034280;28;20057;-37
2022/07/10 01:53:32;;;;;;;1.38;0.95;;;;;;;;;;5033901;28;20493;-37
2022/07/10 01:55:58;;;;;;;2.38;0.70;;;;;;;;;;5034078;28;20104;-38
2022/07/10 01:58:24;;;;;;;4.05;1.02;;;;;;;;;;5034302;28;20491;-36
2022/07/10 02:00:49;;;;;;;4.40;1.00;;;;;;;;;;5034391;28;20079;-37
2022/07/10 02:05:59;;;;;;;1.05;0.90;;;;;;;;;;5033968;28;20534;-37
2022/07/10 02:08:24;;;;;;;1.33;0.95;;;;;;;;;;5034062;28;20022;-37
2022/07/10 02:10:49;;;;;;;2.17;1.00;;;;;;;;;;5034050;28;20053;-36
2022/07/10 02:13:17;;;;;;;3.88;1.55;;;;;;;;;;5033605;28;20108;-39
2022/07/10 02:15:42;;;;;;;2.63;0.90;;;;;;;;;;5032352;28;20060;-37
2022/07/10 02:18:08;;;;;;;4.82;1.10;;;;;;;;;;5031999;28;20017;-37
2022/07/10 02:20:34;;;;;;;1.30;0.85;;;;;;;;;;5033653;28;20025;-37
2022/07/10 02:23:00;;;;;;;4.47;0.77;;;;;;;;;;5033325;28;20334;-37
2022/07/10 02:25:26;;;;;;;1.05;0.73;;;;;;;;;;5033367;28;20075;-38
2022/07/10 02:27:51;;;;;;;8.07;0.98;;;;;;;;;;5032187;28;20059;-37
2022/07/10 02:30:16;;;;;;;3.00;0.77;;;;;;;;;;5033842;28;20022;-36
2022/07/10 02:32:42;;;;;;;1.63;1.00;;;;;;;;;;5032489;28;20243;-36
2022/07/10 02:35:07;;;;;;;2.10;0.82;;;;;;;;;;5031625;28;20412;-37
2022/07/10 02:37:33;;;;;;;1.48;0.90;;;;;;;;;;5032639;28;20045;-36
2022/07/10 02:39:58;;;;;;;1.85;1.05;;;;;;;;;;5033290;28;20033;-37
2022/07/10 02:42:24;;;;;;;1.48;0.95;;;;;;;;;;5032130;28;20061;-40
2022/07/10 02:44:49;;;;;;;0.63;0.63;;;;;;;;;;5033086;28;20028;-37
2022/07/10 02:47:14;;;;;;;1.83;1.00;;;;;;;;;;5031723;28;20021;-37
2022/07/10 02:49:40;;;;;;;1.70;1.10;;;;;;;;;;5032942;28;20022;-38
2022/07/10 02:52:05;;;;;;;0.80;0.80;;;;;;;;;;5033039;28;20140;-36
2022/07/10 02:54:30;;;;;;;0.85;0.73;;;;;;;;;;5031748;28;20025;-39
2022/07/10 02:56:56;;;;;;;1.33;0.70;;;;;;;;;;5031928;28;20496;-36
2022/07/10 02:59:21;;;;;;;0.80;0.80;;;;;;;;;;5031825;28;20032;-37
2022/07/10 03:01:46;;;;;;;0.65;0.65;;;;;;;;;;5032190;28;20091;-37
2022/07/10 03:04:12;;;;;;;1.15;0.95;;;;;;;;;;5032759;28;20021;-37
2022/07/10 03:06:37;;;;;;;5.38;0.82;;;;;;;;;;5031463;28;20023;-36
2022/07/10 03:09:03;;;;;;;1.60;0.73;;;;;;;;;;5031808;28;20081;-38
2022/07/10 03:11:28;;;;;;;2.13;0.70;;;;;;;;;;5032812;28;20073;-38
2022/07/10 03:13:53;;;;;;;2.80;1.10;;;;;;;;;;5031081;28;20029;-37
2022/07/10 03:16:19;;;;;;;1.30;0.80;;;;;;;;;;5032610;28;20056;-37
2022/07/10 03:18:45;;;;;;;1.55;0.80;;;;;;;;;;5032829;28;20028;-37
2022/07/10 03:21:10;;;;;;;3.58;0.82;;;;;;;;;;5031048;28;20021;-38
2022/07/10 03:23:36;;;;;;;2.80;1.00;;;;;;;;;;5032394;28;20124;-36
2022/07/10 03:26:01;;;;;;;1.17;0.93;;;;;;;;;;5032033;28;20124;-37
2022/07/10 03:28:26;;;;;;;5.25;1.45;;;;;;;;;;5032847;28;20381;-36
2022/07/10 03:30:52;;;;;;;0.90;0.80;;;;;;;;;;5032622;28;20132;-37
2022/07/10 03:33:17;;;;;;;3.25;1.10;;;;;;;;;;5032392;28;20041;-37
2022/07/10 03:35:43;;;;;;;3.70;0.90;;;;;;;;;;5030562;28;20028;-36
2022/07/10 03:38:08;;;;;;;1.15;0.90;;;;;;;;;;5032270;28;20116;-36
2022/07/10 03:40:34;;;;;;;1.52;1.00;;;;;;;;;;5031807;28;20381;-37
2022/07/10 03:42:59;;;;;;;4.25;0.82;;;;;;;;;;5030926;28;20041;-36
2022/07/10 03:45:24;;;;;;;2.17;1.00;;;;;;;;;;5030548;28;20049;-36
2022/07/10 03:47:50;;;;;;;2.35;1.00;;;;;;;;;;5032284;28;20047;-36
2022/07/10 03:50:15;;;;;;;1.02;0.93;;;;;;;;;;5030207;28;20029;-39
2022/07/10 03:52:41;;;;;;;2.72;0.80;;;;;;;;;;5031921;28;20048;-37
2022/07/10 03:55:06;;;;;;;4.15;1.17;;;;;;;;;;5031683;28;20029;-37
2022/07/10 04:00:15;;;;;;;1.70;0.95;;;;;;;;;;5032134;28;20423;-36
2022/07/10 04:02:41;;;;;;;2.05;0.98;;;;;;;;;;5031269;28;20026;-37
2022/07/10 04:05:07;;;;;;;3.70;0.93;;;;;;;;;;5031357;28;20090;-36
2022/07/10 04:07:33;;;;;;;2.35;1.17;;;;;;;;;;5030731;28;20053;-36
2022/07/10 04:09:58;;;;;;;6.70;1.13;;;;;;;;;;5030651;28;20493;-39
2022/07/10 04:12:23;;;;;;;4.10;1.33;;;;;;;;;;5031716;28;20018;-37
2022/07/10 04:14:51;;;;;;;1.85;0.90;;;;;;;;;;5029860;28;20022;-37
2022/07/10 04:17:17;;;;;;;1.45;0.80;;;;;;;;;;5030117;28;20063;-37
2022/07/10 04:19:42;;;;;;;1.65;1.00;;;;;;;;;;5031597;28;20018;-37
2022/07/10 04:22:07;;;;;;;1.02;0.80;;;;;;;;;;5031384;28;20033;-36
2022/07/10 04:24:34;;;;;;;2.05;0.98;;;;;;;;;;5030010;28;20116;-41
2022/07/10 04:26:59;;;;;;;3.22;1.25;;;;;;;;;;5031434;28;20017;-37
2022/07/10 04:29:24;;;;;;;1.95;1.08;;;;;;;;;;5031393;28;20036;-38
2022/07/10 04:31:50;;;;;;;0.80;0.80;;;;;;;;;;5031605;28;20017;-37
2022/07/10 04:34:15;;;;;;;1.60;1.02;;;;;;;;;;5029953;28;20032;-36
2022/07/10 04:36:40;;;;;;;0.82;0.80;;;;;;;;;;5030780;28;20487;-36
2022/07/10 04:39:06;;;;;;;2.47;1.33;;;;;;;;;;5031294;28;20476;-37
2022/07/10 04:41:31;;;;;;;3.30;1.13;;;;;;;;;;5031185;28;20063;-39
2022/07/10 04:43:56;;;;;;;2.20;1.92;;;;;;;;;;5031591;28;20025;-36
2022/07/10 04:46:22;;;;;;;2.38;0.93;;;;;;;;;;5031144;28;20369;-36
2022/07/10 04:48:47;;;;;;;1.10;1.00;;;;;;;;;;5029676;28;20079;-40
2022/07/10 04:51:12;;;;;;;2.28;1.20;;;;;;;;;;5033524;28;20516;-40
2022/07/10 04:53:38;;;;;;;1.65;1.10;;;;;;;;;;5034287;28;20018;-36
2022/07/10 04:56:03;;;;;;;2.40;1.13;;;;;;;;;;5034074;28;20415;-37
2022/07/10 04:58:29;;;;;;;1.80;1.00;;;;;;;;;;5035337;28;20045;-36
2022/07/10 05:00:54;;;;;;;1.30;1.00;;;;;;;;;;5035301;28;20089;-37
2022/07/10 05:03:19;;;;;;;2.70;0.82;;;;;;;;;;5035091;28;20091;-35
2022/07/10 05:05:45;;;;;;;0.93;0.90;;;;;;;;;;5034814;28;20492;-37
2022/07/10 05:08:10;;;;;;;1.98;1.00;;;;;;;;;;5033992;28;20017;-36
2022/07/10 05:10:35;;;;;;;2.08;1.08;;;;;;;;;;5033956;28;20113;-36
2022/07/10 05:13:01;;;;;;;1.05;0.95;;;;;;;;;;5033716;28;20059;-36
2022/07/10 05:15:26;;;;;;;1.10;1.00;;;;;;;;;;5034758;28;20071;-36
2022/07/10 05:17:51;;;;;;;1.00;0.90;;;;;;;;;;5034689;28;20074;-37
2022/07/10 05:20:17;;;;;;;3.97;1.17;;;;;;;;;;5034728;28;20032;-36
2022/07/10 05:22:42;;;;;;;2.00;1.23;;;;;;;;;;5034875;28;20115;-35
2022/07/10 05:25:07;;;;;;;1.05;0.75;;;;;;;;;;5033328;28;20021;-36
2022/07/10 05:27:33;;;;;;;0.93;0.82;;;;;;;;;;5034413;28;20080;-36
2022/07/10 05:29:58;;;;;;;2.53;0.93;;;;;;;;;;5034680;28;20025;-37
2022/07/10 05:32:25;;;;;;;1.45;1.00;;;;;;;;;;5033510;28;20384;-36
2022/07/10 05:34:51;;;;;;;4.50;1.10;;;;;;;;;;5034448;28;20097;-36
2022/07/10 05:37:16;;;;;;;1.60;1.00;;;;;;;;;;5033655;28;20057;-36
2022/07/10 05:39:42;;;;;;;1.98;1.10;;;;;;;;;;5033479;28;20013;-36
2022/07/10 05:42:07;;;;;;;1.10;1.00;;;;;;;;;;5033345;28;20037;-36
2022/07/10 05:44:33;;;;;;;1.33;0.75;;;;;;;;;;5034574;28;20590;-40
2022/07/10 05:46:58;;;;;;;2.28;1.10;;;;;;;;;;5032835;28;20085;-38
2022/07/10 05:49:24;;;;;;;2.70;0.68;;;;;;;;;;5034133;28;20047;-39
2022/07/10 05:51:50;;;;;;;2.40;0.90;;;;;;;;;;5032921;28;20374;-35
2022/07/10 05:54:15;;;;;;;0.95;0.82;;;;;;;;;;5034216;28;20521;-36
2022/07/10 05:56:40;;;;;;;0.80;0.80;;;;;;;;;;5034471;28;20025;-38
2022/07/10 05:59:05;;;;;;;1.95;1.00;;;;;;;;;;5033104;28;20014;-36
2022/07/10 06:01:31;;;;;;;1.40;0.80;;;;;;;;;;5033529;28;20026;-36
2022/07/10 06:03:56;;;;;;;0.87;0.80;;;;;;;;;;5033531;28;20032;-36
2022/07/10 06:06:21;;;;;;;0.80;0.80;;;;;;;;;;5033674;28;20369;-37
2022/07/10 06:08:47;;;;;;;1.23;0.80;;;;;;;;;;5034256;28;20025;-36
2022/07/10 06:11:12;;;;;;;0.80;0.67;;;;;;;;;;5034106;28;20255;-37
2022/07/10 06:13:38;;;;;;;1.38;1.00;;;;;;;;;;5032384;28;20355;-36
2022/07/10 06:16:04;;;;;;;0.60;0.60;;;;;;;;;;5032583;28;20491;-36
2022/07/10 06:18:30;;;;;;;0.80;0.80;;;;;;;;;;5033762;28;20034;-36
2022/07/10 06:20:55;;;;;;;1.95;0.93;;;;;;;;;;5033682;28;20143;-36
2022/07/10 06:23:21;;;;;;;0.73;0.60;;;;;;;;;;5033655;28;20033;-36
2022/07/10 06:25:46;;;;;;;2.03;0.70;;;;;;;;;;5033563;28;20293;-36
2022/07/10 06:28:11;;;;;;;1.38;0.73;;;;;;;;;;5033665;28;20040;-37
2022/07/10 06:30:36;;;;;;;0.80;0.70;;;;;;;;;;5032498;28;20033;-36
2022/07/10 06:33:02;;;;;;;1.48;0.70;;;;;;;;;;5032303;28;20242;-38
2022/07/10 06:35:27;;;;;;;1.85;0.70;;;;;;;;;;5033188;28;20026;-37
2022/07/10 06:37:52;;;;;;;3.80;1.00;;;;;;;;;;5031857;28;20053;-37
2022/07/10 06:40:19;;;;;;;1.60;0.63;;;;;;;;;;5032541;28;20025;-36
2022/07/10 06:42:45;;;;;;;1.95;0.70;;;;;;;;;;5033435;28;20271;-38
2022/07/10 06:45:10;;;;;;;1.10;0.80;;;;;;;;;;5033259;28;20037;-39
2022/07/10 06:50:21;;;;;;;0.90;0.80;;;;;;;;;;5032919;28;20028;-38
2022/07/10 06:52:46;;;;;;;2.25;0.73;;;;;;;;;;5033771;28;20022;-36
2022/07/10 06:55:12;;;;;;;1.80;0.90;;;;;;;;;;5031850;28;20023;-39
2022/07/10 06:57:37;;;;;;;1.33;0.73;;;;;;;;;;5032012;28;20021;-36
2022/07/10 07:00:03;;;;;;;1.23;0.80;;;;;;;;;;5031945;28;20423;-36
2022/07/10 07:02:28;;;;;;;3.85;0.90;;;;;;;;;;5032707;28;20040;-37
2022/07/10 07:04:54;;;;;;;1.60;1.02;;;;;;;;;;5031261;28;20084;-37
2022/07/10 07:07:19;;;;;;;1.33;0.60;;;;;;;;;;5031177;28;20421;-37
2022/07/10 07:09:49;;;;;;;1.00;0.70;;;;;;;;;;5033095;28;20027;-36
2022/07/10 07:12:14;;;;;;;1.73;0.93;;;;;;;;;;5031585;28;20247;-37
2022/07/10 07:14:40;;;;;;;0.70;0.70;;;;;;;;;;5030060;28;20373;-37
2022/07/10 07:17:14;;;;;;;1.98;0.95;;;;;;;;;;5032744;28;20044;-36
2022/07/10 07:25:08;;;;;;;1.27;0.85;;;;;;;;;;5032468;28;20032;-37
2022/07/10 07:27:34;;;;;;;6.25;0.80;;;;;;;;;;5032673;28;20021;-36
2022/07/10 07:30:06;;;;;;;0.85;0.70;;;;;;;;;;5032202;28;20032;-36
2022/07/10 07:32:32;;;;;;;1.25;0.80;;;;;;;;;;5032255;28;20453;-36
2022/07/10 07:34:58;;;;;;;0.95;0.57;;;;;;;;;;5032459;28;20025;-36
2022/07/10 07:37:23;;;;;;;0.70;0.50;;;;;;;;;;5031928;28;20403;-36
2022/07/10 07:39:49;;;;;;;2.83;1.02;;;;;;;;;;5032186;28;20037;-36
2022/07/10 07:42:14;;;;;;;3.30;0.75;;;;;;;;;;5032044;28;20048;-37
2022/07/10 07:44:39;;;;;;;2.47;0.80;;;;;;;;;;5030744;28;20021;-37
2022/07/10 07:47:05;;;;;;;2.77;0.90;;;;;;;;;;5031168;28;20064;-37
2022/07/10 07:49:30;;;;;;;2.22;0.80;;;;;;;;;;5031900;28;20247;-38
2022/07/10 07:51:55;;;;;;;1.17;0.70;;;;;;;;;;5031917;28;20104;-38
2022/07/10 07:54:21;;;;;;;0.93;0.70;;;;;;;;;;5031902;28;20026;-37
2022/07/10 07:56:46;;;;;;;1.85;0.98;;;;;;;;;;5032312;28;20022;-36
2022/07/10 07:59:12;;;;;;;2.20;0.70;;;;;;;;;;5030329;28;20049;-38
2022/07/10 08:01:38;;;;;;;2.92;0.90;;;;;;;;;;5031458;28;20313;-36
2022/07/10 08:04:03;;;;;;;3.67;1.15;;;;;;;;;;5032118;28;20457;-36
2022/07/10 08:06:29;;;;;;;3.50;1.10;;;;;;;;;;5030604;28;20048;-36
2022/07/10 08:08:54;;;;;;;2.47;0.80;;;;;;;;;;5032044;28;20026;-38
2022/07/10 08:11:19;;;;;;;0.65;0.60;;;;;;;;;;5031612;28;20062;-37
2022/07/10 08:13:45;;;;;;;9.20;1.25;;;;;;;;;;5029362;28;20025;-38
2022/07/10 08:16:10;;;;;;;1.45;0.80;;;;;;;;;;5021720;28;20024;-36
2022/07/10 08:18:35;;;;;;;0.70;0.70;;;;;;;;;;5026781;28;20021;-39
2022/07/10 08:21:01;;;;;;;0.70;0.70;;;;;;;;;;5028354;28;20018;-40
2022/07/10 08:23:26;;;;;;;4.68;1.15;;;;;;;;;;5029983;28;20543;-36
2022/07/10 08:25:51;;;;;;;1.00;0.82;;;;;;;;;;5030838;28;20392;-37
2022/07/10 08:28:17;;;;;;;0.98;0.80;;;;;;;;;;5029208;28;20029;-37
2022/07/10 08:30:43;;;;;;;0.75;0.75;;;;;;;;;;5028241;28;20877;-36
2022/07/10 08:33:08;;;;;;;4.90;1.02;;;;;;;;;;5025269;28;20439;-36
2022/07/10 08:35:33;;;;;;;2.75;1.00;;;;;;;;;;5048723;28;20029;-36
2022/07/10 08:37:59;;;;;;;0.95;0.90;;;;;;;;;;5051152;28;20052;-38
2022/07/10 08:40:25;;;;;;;2.88;0.90;;;;;;;;;;5051004;28;20032;-36
2022/07/10 08:42:50;;;;;;;1.58;0.70;;;;;;;;;;5051290;28;20037;-36
2022/07/10 08:45:16;;;;;;;0.80;0.70;;;;;;;;;;5051024;28;20024;-36
2022/07/10 08:47:42;;;;;;;1.45;0.73;;;;;;;;;;5051380;28;20025;-38
2022/07/10 08:50:16;;;;;;;3.58;0.77;;;;;;;;;;5051068;28;20013;-36
2022/07/10 08:52:55;;;;;;;0.93;0.85;;;;;;;;;;5051499;28;20021;-37
2022/07/10 08:55:23;;;;;;;0.70;0.65;;;;;;;;;;5049648;28;20128;-36
2022/07/10 08:57:49;;;;;;;3.30;0.90;;;;;;;;;;5049794;28;20067;-36
2022/07/10 09:00:15;;;;;;;2.30;0.82;;;;;;;;;;5051100;28;20020;-37
2022/07/10 09:02:41;;;;;;;0.80;0.80;;;;;;;;;;5035149;28;20034;-36
2022/07/10 09:05:08;;;;;;;1.17;0.85;;;;;;;;;;5031194;28;20017;-38
2022/07/10 09:07:37;;;;;;;4.00;0.85;;;;;;;;;;5031194;28;20025;-39
2022/07/10 09:10:06;;;;;;;2.78;1.10;;;;;;;;;;5030877;28;20434;-38
2022/07/10 09:12:48;;;;;;;3.58;1.30;;;;;;;;;;5029882;28;20127;-37
2022/07/10 09:15:18;;;;;;;1.38;1.17;;;;;;;;;;5030981;28;20025;-37
2022/07/10 09:17:54;;;;;;;3.25;1.13;;;;;;;;;;5029869;28;20052;-37
2022/07/10 09:20:27;;;;;;;1.50;1.15;;;;;;;;;;5029685;28;20306;-37
2022/07/10 09:22:52;;;;;;;2.72;1.00;;;;;;;;;;5029488;28;20540;-38
2022/07/10 09:25:17;;;;;;;3.55;1.25;;;;;;;;;;5030518;28;20029;-37
2022/07/10 09:27:55;;;;;;;0.95;0.95;;;;;;;;;;5031418;28;20018;-37
2022/07/10 09:30:33;;;;;;;1.85;1.17;;;;;;;;;;5031026;28;20029;-36
2022/07/10 09:33:18;;;;;;;1.50;1.00;;;;;;;;;;5029723;28;20022;-37
2022/07/10 09:36:04;;;;;;;4.68;1.60;;;;;;;;;;5030815;28;20029;-36
2022/07/10 09:38:39;;;;;;;2.60;1.23;;;;;;;;;;5032973;28;20049;-36
2022/07/10 09:41:15;;;;;;;1.50;1.20;;;;;;;;;;5032974;28;20128;-36
2022/07/10 09:43:48;;;;;;;1.08;0.98;;;;;;;;;;5034399;28;20117;-36
2022/07/10 09:46:14;;;;;;;2.10;1.50;;;;;;;;;;5034358;28;20029;-36
2022/07/10 09:48:39;;;;;;;4.30;1.38;;;;;;;;;;5034371;28;20029;-40
2022/07/10 09:51:07;;;;;;;2.20;1.15;;;;;;;;;;5034123;28;20507;-36
2022/07/10 09:53:33;;;;;;;1.58;1.42;;;;;;;;;;5034178;28;20018;-37
2022/07/10 09:56:00;;;;;;;2.65;1.10;;;;;;;;;;5032946;28;20040;-36
2022/07/10 09:58:29;;;;;;;2.65;1.25;;;;;;;;;;5034062;28;20062;-36
2022/07/10 10:00:55;;;;;;;3.40;1.40;;;;;;;;;;5032500;28;20545;-36
2022/07/10 10:03:20;;;;;;;3.58;1.27;;;;;;;;;;5034104;28;20044;-36
2022/07/10 10:05:57;;;;;;;2.42;1.30;;;;;;;;;;5034209;28;20152;-36
2022/07/10 10:08:27;;;;;;;2.67;1.00;;;;;;;;;;5032720;28;20022;-37
2022/07/10 10:10:53;;;;;;;1.65;1.00;;;;;;;;;;5033721;28;20017;-38
2022/07/10 10:13:20;;;;;;;2.60;0.98;;;;;;;;;;5034124;28;20026;-37
2022/07/10 10:15:47;;;;;;;4.25;1.25;;;;;;;;;;5032387;28;20423;-37
2022/07/10 10:18:13;;;;;;;1.02;0.90;;;;;;;;;;5033746;28;20025;-40
2022/07/10 10:20:41;;;;;;;1.40;1.08;;;;;;;;;;5032277;28;20024;-37
2022/07/10 10:23:14;;;;;;;2.22;1.10;;;;;;;;;;5033298;28;20048;-40
2022/07/10 10:25:40;;;;;;;2.00;0.98;;;;;;;;;;5031881;28;20021;-36
2022/07/10 10:28:07;;;;;;;3.83;1.17;;;;;;;;;;5032616;28;20021;-38
2022/07/10 10:30:35;;;;;;;1.20;1.00;;;;;;;;;;5032425;28;20061;-38
2022/07/10 10:33:00;;;;;;;3.97;1.10;;;;;;;;;;5032349;28;20083;-37
2022/07/10 10:35:42;;;;;;;1.98;1.40;;;;;;;;;;5033647;28;20453;-37
2022/07/10 10:38:08;;;;;;;2.17;1.00;;;;;;;;;;5033436;28;20107;-37
2022/07/10 10:40:33;;;;;;;1.65;1.00;;;;;;;;;;5032210;28;20057;-37
2022/07/10 10:43:15;;;;;;;1.15;0.90;;;;;;;;;;5033420;28;20083;-37
2022/07/10 10:45:40;;;;;;;4.07;1.00;;;;;;;;;;5033273;28;20412;-37
2022/07/10 10:48:08;;;;;;;4.72;0.90;;;;;;;;;;5033164;28;20033;-37
2022/07/10 10:50:38;;;;;;;0.65;0.65;;;;;;;;;;5031408;28;20112;-38
2022/07/10 10:53:04;;;;;;;3.30;1.00;;;;;;;;;;5032746;28;20416;-38
2022/07/10 10:55:29;;;;;;;2.55;1.05;;;;;;;;;;5032965;28;20029;-37
2022/07/10 10:58:11;;;;;;;0.65;0.65;;;;;;;;;;5033263;28;20025;-37
2022/07/10 11:00:41;;;;;;;2.15;0.90;;;;;;;;;;5031747;28;20044;-37
2022/07/10 11:03:23;;;;;;;1.08;0.88;;;;;;;;;;5032625;28;20037;-37
2022/07/10 11:05:49;;;;;;;3.92;0.70;;;;;;;;;;5031779;28;20025;-37
2022/07/10 11:08:35;;;;;;;0.70;0.70;;;;;;;;;;5032935;28;20045;-40
2022/07/10 11:11:00;;;;;;;3.05;0.70;;;;;;;;;;5031465;28;20071;-37
2022/07/10 11:13:26;;;;;;;0.60;0.60;;;;;;;;;;5032354;28;20021;-37
2022/07/10 11:15:52;;;;;;;1.65;0.90;;;;;;;;;;5031258;28;20060;-37
2022/07/10 11:18:19;;;;;;;4.05;0.80;;;;;;;;;;5032662;28;20025;-36
2022/07/10 11:20:46;;;;;;;2.85;0.80;;;;;;;;;;5032591;28;20028;-37
2022/07/10 11:23:11;;;;;;;1.80;0.60;;;;;;;;;;5032333;28;20091;-37
2022/07/10 11:26:10;;;;;;;2.63;0.93;;;;;;;;;;5030986;28;20749;-37
2022/07/10 11:28:41;;;;;;;2.15;0.80;;;;;;;;;;5032585;28;20255;-38
2022/07/10 11:31:06;;;;;;;4.63;0.77;;;;;;;;;;5031532;28;20025;-37
2022/07/10 11:33:39;;;;;;;3.75;0.90;;;;;;;;;;5031138;28;20108;-38
2022/07/10 11:36:09;;;;;;;0.73;0.55;;;;;;;;;;5031120;28;20026;-37
2022/07/10 11:38:35;;;;;;;3.40;0.70;;;;;;;;;;5032089;28;20076;-37
2022/07/10 11:41:01;;;;;;;1.65;0.77;;;;;;;;;;5032329;28;20029;-38
2022/07/10 11:43:26;;;;;;;1.45;0.65;;;;;;;;;;5032291;28;20032;-36
2022/07/10 11:45:54;;;;;;;7.32;1.17;;;;;;;;;;5032332;28;20025;-37
2022/07/10 11:48:21;;;;;;;11.60;1.50;;;;;;;;;;5032390;28;20469;-37
2022/07/10 11:50:46;;;;;;;2.03;0.60;;;;;;;;;;5032025;28;20508;-37
2022/07/10 11:53:12;;;;;;;3.60;1.30;;;;;;;;;;5031971;28;20025;-38
2022/07/10 11:55:40;;;;;;;3.80;0.70;;;;;;;;;;5031552;28;20029;-36
2022/07/10 11:58:14;;;;;;;4.30;0.70;;;;;;;;;;5032011;28;20491;-39
2022/07/10 12:00:40;;;;;;;1.52;0.93;;;;;;;;;;5031406;28;20423;-37
2022/07/10 12:03:19;;;;;;;2.27;0.67;;;;;;;;;;5032030;28;20037;-37
2022/07/10 12:05:45;;;;;;;;;;;;;;;;;;5030867;28;20259;-39
2022/07/10 12:08:11;;;;;;;3.42;0.50;;;;;;;;;;5031994;28;19905;-36
2022/07/10 12:10:36;;;;;;;3.72;0.60;;;;;;;;;;5031871;28;20032;-39
2022/07/10 12:13:11;;;;;;;0.98;0.60;;;;;;;;;;5030009;28;20021;-40
2022/07/10 12:15:38;;;;;;;0.60;0.60;;;;;;;;;;5031883;28;20029;-39
2022/07/10 12:18:07;;;;;;;3.13;0.50;;;;;;;;;;5031754;28;20083;-37
2022/07/10 12:20:33;;;;;;;1.90;0.70;;;;;;;;;;5030318;28;20022;-37
2022/07/10 12:22:59;;;;;;;0.60;0.60;;;;;;;;;;5031438;28;20517;-37
2022/07/10 12:25:25;;;;;;;1.50;0.45;;;;;;;;;;5031449;28;20025;-38
2022/07/10 12:27:59;;;;;;;2.78;0.70;;;;;;;;;;5031654;28;20025;-36
2022/07/10 12:30:44;;;;;;;2.15;0.50;;;;;;;;;;5031652;28;20021;-38
2022/07/10 12:33:10;;;;;;;3.38;0.60;;;;;;;;;;5031215;28;20112;-38
2022/07/10 12:36:05;;;;;;;1.92;0.95;;;;;;;;;;5031219;28;20026;-38
2022/07/10 12:38:33;;;;;;;1.90;0.90;;;;;;;;;;5025127;28;20049;-39
2022/07/10 12:41:09;;;;;;;0.98;0.85;;;;;;;;;;5031619;28;20105;-37
2022/07/10 12:43:34;;;;;;;3.50;1.60;;;;;;;;;;5031117;28;20124;-37
2022/07/10 12:46:15;;;;;;;3.90;1.48;;;;;;;;;;5030238;28;20540;-37
2022/07/10 12:48:41;;;;;;;5.45;1.80;;;;;;;;;;5030089;28;20061;-37
2022/07/10 12:51:26;;;;;;;6.93;1.75;;;;;;;;;;5030109;28;20071;-44
2022/07/10 12:53:52;;;;;;;2.33;1.20;;;;;;;;;;5031226;28;20037;-38
2022/07/10 12:56:46;;;;;;;3.08;1.10;;;;;;;;;;5031178;28;20026;-38
2022/07/10 12:59:15;;;;;;;1.40;1.13;;;;;;;;;;5025287;28;20034;-37
2022/07/10 13:01:41;;;;;;;11.85;1.10;;;;;;;;;;5030930;28;20018;-39
2022/07/10 13:04:08;;;;;;;8.13;1.00;;;;;;;;;;5031123;28;20025;-38
2022/07/10 13:06:35;;;;;;;12.60;1.20;;;;;;;;;;5030887;28;20112;-37
2022/07/10 13:09:01;;;;;;;12.30;1.63;;;;;;;;;;5031544;28;20461;-37
2022/07/10 13:11:27;;;;;;;9.85;0.90;;;;;;;;;;5032001;28;20025;-37
2022/07/10 13:13:52;;;;;;;14.57;0.88;;;;;;;;;;5034758;28;20022;-37
2022/07/10 13:16:18;;;;;;;11.57;1.38;;;;;;;;;;5035008;28;20454;-37
2022/07/10 13:18:46;;;;;;;4.40;0.85;;;;;;;;;;5034967;28;20037;-37
2022/07/10 13:21:12;;;;;;;6.47;0.88;;;;;;;;;;5033542;28;20104;-38
2022/07/10 13:23:37;;;;;;;14.68;1.50;;;;;;;;;;5033480;28;20136;-37
2022/07/10 13:26:03;;;;;;;8.07;1.63;;;;;;;;;;5034742;28;20029;-37
2022/07/10 13:28:29;;;;;;;6.28;0.95;;;;;;;;;;5035083;28;20021;-38
2022/07/10 13:30:54;;;;;;;7.20;1.00;;;;;;;;;;5035079;28;20045;-37
2022/07/10 13:33:20;;;;;;;4.45;0.90;;;;;;;;;;5034888;28;20029;-37
2022/07/10 13:35:45;;;;;;;10.05;0.90;;;;;;;;;;5034189;28;20104;-37
2022/07/10 13:38:11;;;;;;;4.53;0.90;;;;;;;;;;5034448;28;20037;-37
2022/07/10 13:40:37;;;;;;;4.75;0.70;;;;;;;;;;5034600;28;20057;-37
2022/07/10 13:43:03;;;;;;;10.00;1.20;;;;;;;;;;5034781;28;20037;-37
2022/07/10 13:45:33;;;;;;;1.95;0.60;;;;;;;;;;5034189;28;20030;-37
2022/07/10 13:47:59;;;;;;;6.93;1.20;;;;;;;;;;5033177;28;20022;-38
2022/07/10 13:50:25;;;;;;;5.90;1.10;;;;;;;;;;5034430;28;20075;-36
2022/07/10 13:52:50;;;;;;;2.05;0.60;;;;;;;;;;5034098;28;20025;-39
2022/07/10 13:55:16;;;;;;;3.60;0.70;;;;;;;;;;5033998;28;20067;-37
2022/07/10 13:57:41;;;;;;;4.60;0.80;;;;;;;;;;5032719;28;20104;-38
2022/07/10 14:00:07;;;;;;;2.70;0.80;;;;;;;;;;5034597;28;20365;-37
2022/07/10 14:02:33;;;;;;;5.00;0.80;;;;;;;;;;5033658;28;20033;-37
2022/07/10 14:04:58;;;;;;;6.07;1.00;;;;;;;;;;5032541;28;20029;-37
2022/07/10 14:07:23;;;;;;;4.68;0.70;;;;;;;;;;5034071;28;20457;-37
2022/07/10 14:09:49;;;;;;;6.80;0.70;;;;;;;;;;5034192;28;20486;-37
2022/07/10 14:12:14;;;;;;;4.45;0.50;;;;;;;;;;5032925;28;20028;-37
2022/07/10 14:14:39;;;;;;;2.50;0.75;;;;;;;;;;5033589;28;20380;-37
2022/07/10 14:17:05;;;;;;;4.43;0.60;;;;;;;;;;5032695;28;20032;-37
2022/07/10 14:19:30;;;;;;;5.78;0.70;;;;;;;;;;5033911;28;20026;-37
2022/07/10 14:21:56;;;;;;;5.60;0.63;;;;;;;;;;5033687;28;20028;-38
2022/07/10 14:24:21;;;;;;;3.90;0.50;;;;;;;;;;5031955;28;20021;-38
2022/07/10 14:26:46;;;;;;;2.65;0.70;;;;;;;;;;5032160;28;20044;-37
2022/07/10 14:29:12;;;;;;;5.75;0.68;;;;;;;;;;5034009;28;20017;-36
2022/07/10 14:31:38;;;;;;;6.30;0.93;;;;;;;;;;5033390;28;20030;-38
2022/07/10 14:34:04;;;;;;;4.63;0.80;;;;;;;;;;5033629;28;20384;-38
2022/07/10 14:36:30;;;;;;;2.40;1.05;;;;;;;;;;5033034;28;20389;-37
2022/07/10 14:38:55;;;;;;;2.50;0.75;;;;;;;;;;5032306;28;20053;-37
2022/07/10 14:41:22;;;;;;;1.90;0.60;;;;;;;;;;5032380;28;20108;-40
2022/07/10 14:43:47;;;;;;;3.10;0.93;;;;;;;;;;5032149;28;20037;-36
2022/07/10 14:46:12;;;;;;;3.63;0.63;;;;;;;;;;5033090;28;20044;-37
2022/07/10 14:48:38;;;;;;;0.52;0.50;;;;;;;;;;5031920;28;20247;-37
2022/07/10 14:51:03;;;;;;;6.75;1.02;;;;;;;;;;5033182;28;20457;-37
2022/07/10 14:53:30;;;;;;;0.73;0.40;;;;;;;;;;5033678;28;20017;-37
2022/07/10 14:55:55;;;;;;;1.60;0.65;;;;;;;;;;5031682;28;20104;-37